Time;durP1;ratioP1;P1;durP2;ratioP2;P2;SDS_P1;SDS_P2;PMS_P1;PMS_P2;Temp;Humidity;BMP_temperature;BMP_pressure;BME280_temperature;BME280_humidity;BME280_pressure;Samples;Min_cycle;Max_cycle;Signal;HPM_P1;HPM_P2
2022/06/18 00:01:34;;;;;;;5.68;3.33;;;19.30;99.90;;;;;;5071113;28;20036;-63
2022/06/18 00:04:06;;;;;;;5.97;3.67;;;19.20;99.90;;;;;;5070628;28;20045;-62
2022/06/18 00:06:35;;;;;;;4.57;3.53;;;19.20;99.90;;;;;;5072150;28;20041;-62
2022/06/18 00:09:03;;;;;;;6.88;3.78;;;19.10;99.90;;;;;;5071899;28;20033;-63
2022/06/18 00:14:12;;;;;;;5.38;3.88;;;19.10;99.90;;;;;;5072510;28;20048;-63
2022/06/18 00:16:38;;;;;;;4.97;3.65;;;19.00;99.90;;;;;;5072154;28;20036;-63
2022/06/18 00:19:04;;;;;;;4.78;3.40;;;19.10;99.90;;;;;;5070382;28;20492;-64
2022/06/18 00:21:29;;;;;;;4.43;3.55;;;19.10;99.90;;;;;;5070794;28;20028;-64
2022/06/18 00:23:55;;;;;;;5.32;3.50;;;19.00;99.90;;;;;;5070028;28;20044;-62
2022/06/18 00:26:21;;;;;;;4.35;3.28;;;19.00;99.90;;;;;;5069857;28;20040;-62
2022/06/18 00:28:46;;;;;;;5.70;3.97;;;19.00;99.90;;;;;;5070942;28;20047;-63
2022/06/18 00:31:12;;;;;;;5.53;3.80;;;19.00;99.90;;;;;;5071993;28;21590;-63
2022/06/18 00:33:41;;;;;;;6.40;3.53;;;19.00;99.90;;;;;;5071958;28;20036;-63
2022/06/18 00:36:13;;;;;;;7.03;4.00;;;18.90;99.90;;;;;;5071612;28;20597;-65
2022/06/18 00:38:42;;;;;;;7.65;3.20;;;18.90;99.90;;;;;;5070346;28;20062;-64
2022/06/18 00:41:11;;;;;;;5.25;3.35;;;18.90;99.90;;;;;;5071709;28;20040;-64
2022/06/18 00:43:49;;;;;;;5.05;4.38;;;18.90;99.90;;;;;;5070480;28;20068;-63
2022/06/18 00:46:35;;;;;;;4.82;3.78;;;18.90;99.90;;;;;;5071730;28;20462;-63
2022/06/18 00:49:10;;;;;;;5.63;3.45;;;18.90;99.90;;;;;;5070340;28;20123;-64
2022/06/18 00:51:47;;;;;;;5.95;4.00;;;18.90;99.90;;;;;;5070305;28;20147;-64
2022/06/18 00:54:22;;;;;;;5.50;3.58;;;18.90;99.90;;;;;;5070412;28;20132;-64
2022/06/18 00:57:07;;;;;;;5.38;3.53;;;18.90;99.90;;;;;;5068763;28;20041;-64
2022/06/18 00:59:39;;;;;;;5.05;3.53;;;18.80;99.90;;;;;;5070137;28;20044;-64
2022/06/18 01:02:08;;;;;;;5.80;3.75;;;18.80;99.90;;;;;;5071510;28;20036;-63
2022/06/18 01:04:35;;;;;;;6.80;3.97;;;18.80;99.90;;;;;;5070014;28;20093;-64
2022/06/18 01:07:06;;;;;;;4.63;3.58;;;18.80;99.90;;;;;;5069861;28;20105;-65
2022/06/18 01:09:35;;;;;;;9.30;4.47;;;18.70;99.90;;;;;;5070946;28;20041;-64
2022/06/18 01:12:01;;;;;;;6.00;3.63;;;18.70;99.90;;;;;;5070060;28;20060;-62
2022/06/18 01:14:27;;;;;;;5.70;4.05;;;18.70;99.90;;;;;;5070926;28;20051;-63
2022/06/18 01:16:56;;;;;;;5.60;3.80;;;18.80;99.90;;;;;;5069635;28;20048;-63
2022/06/18 01:19:35;;;;;;;5.95;3.70;;;18.70;99.90;;;;;;5069937;28;20056;-63
2022/06/18 01:22:12;;;;;;;7.38;3.92;;;18.70;99.90;;;;;;5071008;28;20171;-63
2022/06/18 01:24:40;;;;;;;7.38;3.90;;;18.70;99.90;;;;;;5070916;28;20115;-63
2022/06/18 01:27:09;;;;;;;7.13;4.35;;;18.70;99.90;;;;;;5071114;28;20107;-63
2022/06/18 01:29:36;;;;;;;7.13;4.05;;;18.70;99.90;;;;;;5070678;28;20041;-64
2022/06/18 01:32:03;;;;;;;6.53;4.00;;;18.70;99.90;;;;;;5069614;28;20052;-63
2022/06/18 01:34:29;;;;;;;7.05;4.75;;;18.60;99.90;;;;;;5069206;28;20052;-63
2022/06/18 01:36:58;;;;;;;5.97;4.63;;;18.60;99.90;;;;;;5069907;28;20049;-63
2022/06/18 01:39:30;;;;;;;7.68;4.68;;;18.60;99.90;;;;;;5070045;28;20399;-64
2022/06/18 01:42:02;;;;;;;6.33;5.00;;;18.60;99.90;;;;;;5070808;28;20383;-63
2022/06/18 01:44:51;;;;;;;6.03;4.60;;;18.60;99.90;;;;;;5067597;28;20438;-64
2022/06/18 01:47:26;;;;;;;7.53;4.80;;;18.60;99.90;;;;;;5068727;28;21361;-63
2022/06/18 01:50:17;;;;;;;7.95;4.47;;;18.60;99.90;;;;;;5070107;28;20037;-64
2022/06/18 01:53:15;;;;;;;6.83;4.30;;;18.60;99.90;;;;;;5060366;28;20103;-63
2022/06/18 01:55:45;;;;;;;7.25;5.28;;;18.60;99.90;;;;;;5068246;28;20060;-64
2022/06/18 01:58:37;;;;;;;8.05;5.43;;;18.50;99.90;;;;;;5069146;28;20040;-63
2022/06/18 02:01:05;;;;;;;8.87;5.63;;;18.50;99.90;;;;;;5069709;28;20111;-63
2022/06/18 02:03:31;;;;;;;6.28;5.22;;;18.50;99.90;;;;;;5069927;28;20032;-65
2022/06/18 02:05:57;;;;;;;7.05;4.90;;;18.60;99.90;;;;;;5068221;28;20039;-65
2022/06/18 02:08:23;;;;;;;6.22;4.97;;;18.60;99.90;;;;;;5069800;28;20037;-64
2022/06/18 02:10:57;;;;;;;8.43;5.72;;;18.60;99.90;;;;;;5069886;28;20050;-63
2022/06/18 02:13:28;;;;;;;9.13;5.40;;;18.60;99.90;;;;;;5068222;28;20079;-63
2022/06/18 02:15:55;;;;;;;10.15;5.78;;;18.60;99.90;;;;;;5068076;28;20045;-63
2022/06/18 02:18:21;;;;;;;8.70;5.15;;;18.60;99.90;;;;;;5069918;28;20111;-63
2022/06/18 02:20:54;;;;;;;7.80;5.20;;;18.60;99.90;;;;;;5067457;28;20059;-64
2022/06/18 02:23:22;;;;;;;8.43;5.38;;;18.70;99.90;;;;;;5069015;28;20075;-63
2022/06/18 02:25:48;;;;;;;6.45;4.82;;;18.70;99.90;;;;;;5070166;28;20483;-63
2022/06/18 02:28:26;;;;;;;6.53;4.78;;;18.70;99.90;;;;;;5068427;28;20047;-63
2022/06/18 02:30:57;;;;;;;6.82;4.70;;;18.70;99.90;;;;;;5068595;28;20070;-64
2022/06/18 02:33:29;;;;;;;9.05;5.18;;;18.60;99.90;;;;;;5069958;28;20036;-62
2022/06/18 02:35:58;;;;;;;10.27;4.70;;;18.60;99.90;;;;;;5069865;28;20044;-62
2022/06/18 02:38:24;;;;;;;5.10;4.60;;;18.60;99.90;;;;;;5069266;28;20131;-62
2022/06/18 02:40:50;;;;;;;7.35;5.30;;;18.50;99.90;;;;;;5069911;28;20460;-62
2022/06/18 02:43:18;;;;;;;6.55;4.95;;;18.60;99.90;;;;;;5068242;28;20044;-64
2022/06/18 02:45:47;;;;;;;8.25;5.18;;;18.60;99.90;;;;;;5068466;28;20051;-65
2022/06/18 02:48:13;;;;;;;5.90;4.95;;;18.60;99.90;;;;;;5069523;28;20041;-64
2022/06/18 02:50:41;;;;;;;7.88;5.35;;;18.50;99.90;;;;;;5068268;28;20387;-63
2022/06/18 02:53:11;;;;;;;7.72;5.43;;;18.50;99.90;;;;;;5069674;28;20036;-64
2022/06/18 02:55:43;;;;;;;7.15;5.18;;;18.40;99.90;;;;;;5068489;28;20032;-64
2022/06/18 02:58:20;;;;;;;6.90;5.22;;;18.40;99.90;;;;;;5069496;28;20040;-63
2022/06/18 03:01:06;;;;;;;8.25;5.25;;;18.40;99.90;;;;;;5069551;28;20076;-63
2022/06/18 03:03:36;;;;;;;8.52;5.32;;;18.40;99.90;;;;;;5069556;28;20179;-63
2022/06/18 03:06:02;;;;;;;5.63;5.00;;;18.30;99.90;;;;;;5069488;28;20443;-63
2022/06/18 03:08:29;;;;;;;6.03;5.35;;;18.20;99.90;;;;;;5067810;28;20041;-63
2022/06/18 03:13:40;;;;;;;11.95;6.20;;;18.20;99.90;;;;;;5069336;28;20462;-64
2022/06/18 03:16:08;;;;;;;10.20;6.80;;;18.10;99.90;;;;;;5068329;28;20076;-63
2022/06/18 03:18:35;;;;;;;8.02;5.78;;;18.10;99.90;;;;;;5069072;28;20039;-64
2022/06/18 03:21:26;;;;;;;7.63;6.10;;;18.10;99.90;;;;;;5069128;28;20049;-64
2022/06/18 03:23:51;;;;;;;8.75;5.82;;;18.10;99.90;;;;;;5069447;28;20048;-64
2022/06/18 03:26:18;;;;;;;8.40;6.00;;;18.00;99.90;;;;;;5069421;28;20032;-63
2022/06/18 03:28:44;;;;;;;8.75;7.07;;;18.00;99.90;;;;;;5068112;28;20071;-62
2022/06/18 03:31:11;;;;;;;10.27;7.82;;;18.00;99.90;;;;;;5066807;28;20107;-63
2022/06/18 03:33:36;;;;;;;9.55;7.22;;;18.00;99.90;;;;;;5068072;28;20090;-62
2022/06/18 03:36:04;;;;;;;10.68;7.65;;;18.00;99.90;;;;;;5064136;28;20032;-63
2022/06/18 03:38:30;;;;;;;9.88;8.05;;;18.00;99.90;;;;;;5068677;28;20059;-63
2022/06/18 03:40:57;;;;;;;11.45;8.27;;;18.00;99.90;;;;;;5068920;28;20079;-62
2022/06/18 03:43:24;;;;;;;12.93;8.70;;;18.10;99.90;;;;;;5069198;28;20479;-62
2022/06/18 03:46:00;;;;;;;13.95;9.57;;;18.10;99.90;;;;;;5068604;28;20041;-64
2022/06/18 03:48:46;;;;;;;15.43;8.93;;;18.10;99.90;;;;;;5051051;28;20056;-63
2022/06/18 03:51:13;;;;;;;12.43;8.48;;;18.20;99.90;;;;;;5067720;28;20578;-63
2022/06/18 03:53:40;;;;;;;11.98;8.90;;;18.20;99.90;;;;;;5067224;28;20407;-63
2022/06/18 03:56:06;;;;;;;15.68;9.52;;;18.20;99.90;;;;;;5067525;28;20445;-64
2022/06/18 03:58:31;;;;;;;13.73;9.68;;;18.20;99.90;;;;;;5067338;28;20040;-64
2022/06/18 04:00:57;;;;;;;15.40;9.02;;;18.20;99.90;;;;;;5068511;28;20040;-63
2022/06/18 04:03:23;;;;;;;15.13;9.50;;;18.20;99.90;;;;;;5072384;28;20043;-64
2022/06/18 04:05:49;;;;;;;15.80;10.05;;;18.30;99.90;;;;;;5071777;28;20040;-63
2022/06/18 04:08:19;;;;;;;13.60;8.70;;;18.30;99.90;;;;;;5072335;28;20036;-63
2022/06/18 04:10:45;;;;;;;12.65;9.60;;;18.30;99.90;;;;;;5072074;28;20399;-64
2022/06/18 04:13:11;;;;;;;13.18;9.23;;;18.30;99.90;;;;;;5071155;28;20051;-63
2022/06/18 04:15:36;;;;;;;12.88;9.38;;;18.30;99.90;;;;;;5070851;28;20032;-64
2022/06/18 04:18:03;;;;;;;16.35;9.73;;;18.30;99.90;;;;;;5070890;28;20063;-63
2022/06/18 04:20:35;;;;;;;15.10;9.93;;;18.30;99.90;;;;;;5071222;28;20038;-64
2022/06/18 04:23:01;;;;;;;17.15;9.65;;;18.30;99.90;;;;;;5070946;28;20040;-65
2022/06/18 04:25:27;;;;;;;11.68;9.18;;;18.40;99.90;;;;;;5072158;28;20041;-62
2022/06/18 04:27:57;;;;;;;14.57;9.23;;;18.40;99.90;;;;;;5072069;28;20036;-63
2022/06/18 04:30:24;;;;;;;14.90;9.35;;;18.40;99.90;;;;;;5072137;28;20549;-63
2022/06/18 04:32:50;;;;;;;15.23;9.25;;;18.40;99.90;;;;;;5070962;28;20517;-63
2022/06/18 04:35:15;;;;;;;12.18;8.00;;;18.50;99.90;;;;;;5070396;28;20068;-64
2022/06/18 04:37:43;;;;;;;14.10;9.00;;;18.50;99.90;;;;;;5071690;28;20058;-64
2022/06/18 04:40:31;;;;;;;17.52;9.40;;;18.50;99.90;;;;;;5070303;28;20047;-63
2022/06/18 04:43:05;;;;;;;17.45;8.93;;;18.50;99.90;;;;;;5070678;28;20040;-64
2022/06/18 04:45:32;;;;;;;15.15;9.20;;;18.60;99.90;;;;;;5070854;28;20062;-62
2022/06/18 04:47:58;;;;;;;15.13;8.80;;;18.60;99.90;;;;;;5070821;28;20107;-63
2022/06/18 04:50:27;;;;;;;18.17;9.57;;;18.70;99.90;;;;;;5071401;28;20032;-63
2022/06/18 04:52:53;;;;;;;18.85;9.38;;;18.70;99.90;;;;;;5071496;28;20074;-65
2022/06/18 04:55:19;;;;;;;15.68;9.20;;;18.70;99.90;;;;;;5070294;28;20064;-63
2022/06/18 04:57:44;;;;;;;24.35;10.63;;;18.80;99.90;;;;;;5071432;28;20037;-63
2022/06/18 05:00:11;;;;;;;20.13;10.73;;;18.80;99.90;;;;;;5071478;28;20044;-63
2022/06/18 05:02:37;;;;;;;16.13;9.23;;;18.90;99.90;;;;;;5070163;28;20119;-63
2022/06/18 05:05:07;;;;;;;16.20;9.70;;;18.90;99.90;;;;;;5070222;28;20119;-64
2022/06/18 05:07:33;;;;;;;17.08;9.75;;;19.00;99.90;;;;;;5071437;28;20033;-63
2022/06/18 05:09:59;;;;;;;18.33;9.88;;;19.00;99.90;;;;;;5071475;28;20380;-63
2022/06/18 05:12:24;;;;;;;19.95;9.93;;;19.10;99.90;;;;;;5070937;28;20051;-62
2022/06/18 05:14:50;;;;;;;21.30;10.13;;;19.10;99.90;;;;;;5053069;28;20076;-63
2022/06/18 05:17:23;;;;;;;15.30;10.00;;;19.20;99.90;;;;;;5069591;28;20491;-63
2022/06/18 05:19:49;;;;;;;15.35;9.30;;;19.20;99.90;;;;;;5069631;28;20107;-64
2022/06/18 05:22:15;;;;;;;19.98;9.57;;;19.30;99.90;;;;;;5069961;28;20967;-64
2022/06/18 05:24:40;;;;;;;23.25;10.70;;;19.30;99.90;;;;;;5070991;28;20929;-62
2022/06/18 05:27:17;;;;;;;22.60;10.60;;;19.40;99.90;;;;;;5067694;28;20032;-63
2022/06/18 05:29:43;;;;;;;19.95;10.73;;;19.40;99.90;;;;;;5071019;28;20052;-63
2022/06/18 05:32:09;;;;;;;17.92;9.98;;;19.50;99.90;;;;;;5069279;28;20040;-64
2022/06/18 05:34:34;;;;;;;17.70;10.93;;;19.50;99.90;;;;;;5068983;28;20044;-63
2022/06/18 05:37:00;;;;;;;18.95;11.05;;;19.50;99.90;;;;;;5070616;28;20048;-63
2022/06/18 05:39:25;;;;;;;18.08;10.60;;;19.60;99.90;;;;;;5069074;28;20044;-63
2022/06/18 05:41:51;;;;;;;17.73;10.65;;;19.70;99.90;;;;;;5068957;28;20033;-63
2022/06/18 05:44:17;;;;;;;18.25;10.02;;;19.70;99.90;;;;;;5070059;28;20040;-62
2022/06/18 05:46:42;;;;;;;21.05;11.00;;;19.80;99.90;;;;;;5070174;28;20044;-63
2022/06/18 05:49:09;;;;;;;17.33;10.45;;;19.90;99.90;;;;;;5070349;28;20367;-65
2022/06/18 05:51:34;;;;;;;21.17;10.27;;;19.80;99.90;;;;;;5068492;28;20055;-64
2022/06/18 05:54:00;;;;;;;20.92;10.68;;;19.80;99.90;;;;;;5068888;28;20032;-63
2022/06/18 05:56:26;;;;;;;18.77;9.80;;;19.80;99.90;;;;;;5068650;28;20044;-63
2022/06/18 05:58:51;;;;;;;19.80;10.55;;;19.80;99.90;;;;;;5052101;28;20047;-62
2022/06/18 06:01:17;;;;;;;17.00;9.20;;;19.90;99.90;;;;;;5068855;28;20040;-65
2022/06/18 06:03:43;;;;;;;17.63;10.20;;;20.00;99.90;;;;;;5069997;28;20041;-63
2022/06/18 06:06:09;;;;;;;17.05;9.85;;;20.10;99.90;;;;;;5069164;28;20440;-63
2022/06/18 06:08:35;;;;;;;28.02;11.27;;;20.10;99.90;;;;;;5069235;28;20491;-63
2022/06/18 06:13:45;;;;;;;16.88;9.85;;;20.20;99.90;;;;;;5069995;28;20044;-63
2022/06/18 06:16:11;;;;;;;18.35;10.43;;;20.30;99.90;;;;;;5069958;28;20040;-63
2022/06/18 06:18:36;;;;;;;21.27;10.95;;;20.30;99.90;;;;;;5068628;28;20044;-64
2022/06/18 06:21:02;;;;;;;23.15;11.35;;;20.40;99.90;;;;;;5069995;28;20059;-64
2022/06/18 06:23:29;;;;;;;20.98;11.13;;;20.50;99.90;;;;;;5068075;28;20041;-63
2022/06/18 06:25:56;;;;;;;18.70;10.23;;;20.60;99.90;;;;;;5068436;28;20036;-64
2022/06/18 06:28:28;;;;;;;20.23;11.43;;;20.70;99.90;;;;;;5069954;28;20040;-63
2022/06/18 06:30:54;;;;;;;;;;;20.70;99.90;;;;;;5069132;28;20488;-63
2022/06/18 06:33:20;;;;;;;15.70;9.85;;;20.70;99.90;;;;;;5068901;28;19922;-64
2022/06/18 06:35:46;;;;;;;15.23;8.75;;;20.80;99.90;;;;;;5069896;28;20044;-64
2022/06/18 06:38:13;;;;;;;18.52;8.63;;;20.90;99.90;;;;;;5068004;28;20052;-64
2022/06/18 06:40:42;;;;;;;15.85;9.40;;;21.00;99.90;;;;;;5068400;28;20098;-64
2022/06/18 06:43:14;;;;;;;17.02;9.30;;;21.10;99.90;;;;;;5068446;28;20514;-62
2022/06/18 06:45:40;;;;;;;;;;;21.10;99.90;;;;;;5068887;28;20033;-63
2022/06/18 06:48:06;;;;;;;23.00;8.73;;;21.20;99.90;;;;;;5069795;28;20330;-63
2022/06/18 06:50:31;;;;;;;15.80;8.82;;;21.30;99.90;;;;;;5068548;28;20051;-64
2022/06/18 06:52:57;;;;;;;18.08;9.93;;;21.40;99.90;;;;;;5070090;28;20037;-64
2022/06/18 06:58:25;;;;;;;15.80;8.98;;;21.60;99.90;;;;;;5069517;28;20040;-64
2022/06/18 07:00:56;;;;;;;15.18;8.25;;;21.80;99.90;;;;;;5068234;28;20055;-64
2022/06/18 07:03:27;;;;;;;20.83;9.85;;;21.90;99.90;;;;;;5068014;28;20103;-64
2022/06/18 07:05:53;;;;;;;16.92;9.60;;;22.00;99.90;;;;;;5069413;28;20032;-64
2022/06/18 07:08:20;;;;;;;15.13;8.68;;;22.10;99.90;;;;;;5069258;28;20094;-64
2022/06/18 07:10:48;;;;;;;14.88;8.77;;;22.20;99.90;;;;;;5068190;28;20135;-64
2022/06/18 07:13:14;;;;;;;15.55;8.02;;;22.20;99.90;;;;;;5067979;28;20124;-63
2022/06/18 07:15:40;;;;;;;15.30;7.50;;;22.30;99.90;;;;;;5069389;28;20048;-64
2022/06/18 07:18:18;;;;;;;15.20;7.85;;;22.30;99.90;;;;;;5066682;28;20049;-63
2022/06/18 07:20:44;;;;;;;13.95;7.55;;;22.40;99.90;;;;;;5067632;28;20059;-63
2022/06/18 07:23:11;;;;;;;14.75;7.18;;;22.50;99.90;;;;;;5069194;28;20028;-63
2022/06/18 07:25:37;;;;;;;13.65;7.28;;;22.60;99.90;;;;;;5067870;28;20052;-63
2022/06/18 07:28:03;;;;;;;11.25;5.95;;;22.70;99.90;;;;;;5067724;28;20044;-62
2022/06/18 07:30:29;;;;;;;12.73;5.93;;;22.80;99.90;;;;;;5068686;28;20029;-63
2022/06/18 07:32:55;;;;;;;13.52;5.93;;;22.90;99.90;;;;;;5067747;28;20051;-63
2022/06/18 07:35:24;;;;;;;13.50;6.50;;;23.00;99.90;;;;;;5068542;28;20090;-63
2022/06/18 07:37:50;;;;;;;14.95;6.70;;;23.20;99.90;;;;;;5071280;28;20162;-64
2022/06/18 07:40:16;;;;;;;13.50;6.25;;;23.30;99.90;;;;;;5071338;28;20041;-62
2022/06/18 07:42:44;;;;;;;11.93;5.40;;;23.50;99.90;;;;;;5072527;28;20067;-63
2022/06/18 07:45:20;;;;;;;13.98;6.18;;;23.70;99.90;;;;;;5071714;28;20402;-64
2022/06/18 07:47:46;;;;;;;11.20;4.68;;;23.70;99.90;;;;;;5070708;28;20048;-64
2022/06/18 07:50:13;;;;;;;10.60;4.20;;;23.90;99.90;;;;;;5072720;28;20044;-63
2022/06/18 07:52:39;;;;;;;15.30;5.55;;;23.90;99.90;;;;;;5072476;28;20425;-63
2022/06/18 07:55:05;;;;;;;9.63;5.10;;;23.90;99.90;;;;;;5071510;28;20032;-63
2022/06/18 07:57:31;;;;;;;9.48;4.40;;;23.90;99.90;;;;;;5070820;28;20049;-63
2022/06/18 07:59:57;;;;;;;9.60;4.68;;;24.00;99.90;;;;;;5071338;28;20037;-63
2022/06/18 08:02:23;;;;;;;9.98;4.70;;;23.90;99.90;;;;;;5072254;28;20115;-63
2022/06/18 08:04:49;;;;;;;13.38;5.10;;;24.00;99.90;;;;;;5070966;28;20115;-63
2022/06/18 08:07:15;;;;;;;10.38;4.45;;;24.00;99.90;;;;;;5072284;28;20124;-63
2022/06/18 08:09:41;;;;;;;9.95;5.05;;;24.10;99.90;;;;;;5071038;28;20052;-63
2022/06/18 08:12:07;;;;;;;10.75;4.53;;;24.10;99.90;;;;;;5071271;28;20476;-63
2022/06/18 08:14:32;;;;;;;9.95;4.57;;;24.10;99.90;;;;;;5071106;28;20044;-65
2022/06/18 08:16:58;;;;;;;11.77;4.60;;;24.20;99.90;;;;;;5072302;28;20102;-63
2022/06/18 08:19:24;;;;;;;9.32;4.35;;;24.30;99.90;;;;;;5070936;28;20040;-65
2022/06/18 08:21:50;;;;;;;9.70;4.70;;;24.40;99.90;;;;;;5072189;28;20066;-63
2022/06/18 08:24:21;;;;;;;8.23;3.70;;;24.50;99.90;;;;;;5071119;28;20619;-64
2022/06/18 08:26:49;;;;;;;10.38;3.92;;;24.60;99.90;;;;;;5072013;28;20384;-63
2022/06/18 08:29:20;;;;;;;10.55;4.05;;;24.80;99.90;;;;;;5070773;28;20044;-63
2022/06/18 08:31:46;;;;;;;7.78;3.60;;;24.90;99.90;;;;;;5070447;28;20116;-63
2022/06/18 08:34:12;;;;;;;7.15;3.40;;;25.00;99.90;;;;;;5072095;28;20115;-63
2022/06/18 08:36:39;;;;;;;6.75;3.70;;;25.00;99.90;;;;;;5070687;28;20060;-64
2022/06/18 08:39:05;;;;;;;14.38;8.75;;;25.00;99.90;;;;;;5070402;28;20406;-64
2022/06/18 08:41:56;;;;;;;7.18;3.85;;;25.10;99.90;;;;;;5071846;28;20098;-64
2022/06/18 08:44:39;;;;;;;6.45;3.53;;;25.10;99.90;;;;;;5070625;28;20157;-63
2022/06/18 08:47:33;;;;;;;10.55;4.40;;;25.30;99.90;;;;;;5070026;28;20048;-65
2022/06/18 08:50:13;;;;;;;8.32;4.25;;;25.40;99.90;;;;;;5071584;28;20036;-63
2022/06/18 08:53:12;;;;;;;9.27;4.18;;;25.60;99.90;;;;;;5071628;28;20036;-64
2022/06/18 08:56:10;;;;;;;8.68;3.75;;;25.50;99.90;;;;;;5053947;28;20036;-64
2022/06/18 08:58:56;;;;;;;12.20;3.35;;;25.50;99.90;;;;;;5071200;28;20040;-63
2022/06/18 09:01:28;;;;;;;7.25;3.38;;;25.60;99.90;;;;;;5063893;28;20051;-64
2022/06/18 09:04:02;;;;;;;9.77;3.80;;;25.60;99.90;;;;;;5071599;28;20387;-64
2022/06/18 09:06:56;;;;;;;6.57;3.25;;;25.70;99.90;;;;;;5070387;28;20483;-63
2022/06/18 09:09:25;;;;;;;9.25;3.95;;;25.70;99.90;;;;;;5067811;28;20531;-64
2022/06/18 09:12:18;;;;;;;9.38;3.40;;;25.90;99.90;;;;;;5069696;28;20048;-63
2022/06/18 09:14:57;;;;;;;7.75;3.58;;;26.10;99.90;;;;;;5070938;28;20127;-64
2022/06/18 09:17:42;;;;;;;9.88;3.60;;;26.20;99.90;;;;;;5069242;28;20135;-63
2022/06/18 09:20:10;;;;;;;8.35;3.80;;;26.30;99.90;;;;;;5070792;28;20036;-64
2022/06/18 09:22:44;;;;;;;9.07;3.72;;;26.40;99.90;;;;;;5070797;28;20383;-63
2022/06/18 09:25:16;;;;;;;11.20;4.18;;;26.10;99.90;;;;;;5069085;28;20106;-64
2022/06/18 09:28:01;;;;;;;9.25;3.20;;;26.30;99.90;;;;;;5070211;28;20028;-64
2022/06/18 09:30:30;;;;;;;6.97;2.67;;;26.40;99.90;;;;;;5070829;28;20048;-64
2022/06/18 09:33:12;;;;;;;5.10;2.58;;;26.20;99.90;;;;;;5070903;28;20123;-63
2022/06/18 09:36:02;;;;;;;6.32;2.40;;;26.30;99.90;;;;;;5070227;28;20044;-64
2022/06/18 09:38:33;;;;;;;7.45;2.08;;;26.40;99.90;;;;;;5069690;28;20058;-64
2022/06/18 09:41:13;;;;;;;6.18;2.08;;;26.40;99.90;;;;;;5069133;28;20460;-64
2022/06/18 09:43:54;;;;;;;3.78;1.98;;;26.60;99.90;;;;;;5069361;28;20040;-64
2022/06/18 09:46:26;;;;;;;4.72;2.03;;;26.40;99.90;;;;;;5069322;28;20048;-64
2022/06/18 09:48:52;;;;;;;;;;;26.40;99.90;;;;;;5070778;28;20040;-63
2022/06/18 09:51:29;;;;;;;4.57;2.00;;;26.60;99.90;;;;;;5069324;28;19965;-63
2022/06/18 09:54:00;;;;;;;7.88;1.90;;;26.70;99.90;;;;;;5069050;28;20069;-64
2022/06/18 09:56:33;;;;;;;5.10;1.90;;;26.80;99.90;;;;;;5068857;28;20119;-64
2022/06/18 09:59:05;;;;;;;4.65;1.80;;;26.90;99.90;;;;;;5069435;28;20040;-63
2022/06/18 10:01:36;;;;;;;;;;;27.00;99.90;;;;;;5069313;28;20047;-64
2022/06/18 10:06:57;;;;;;;4.35;1.63;;;27.30;99.90;;;;;;5068882;28;20282;-64
2022/06/18 10:09:43;;;;;;;6.68;2.33;;;27.50;99.90;;;;;;5068877;28;20488;-63
2022/06/18 10:12:27;;;;;;;7.53;2.75;;;27.60;99.90;;;;;;5069088;28;20479;-65
2022/06/18 10:14:55;;;;;;;4.30;1.75;;;27.40;99.90;;;;;;5069963;28;20123;-64
2022/06/18 10:17:28;;;;;;;5.05;2.05;;;27.60;99.90;;;;;;5069980;28;20438;-64
2022/06/18 10:20:33;;;;;;;7.57;2.30;;;27.70;99.90;;;;;;5068399;28;20041;-63
2022/06/18 10:23:12;;;;;;;4.97;2.00;;;27.70;99.60;;;;;;5068739;28;20040;-64
2022/06/18 10:25:43;;;;;;;8.15;1.95;;;27.70;99.90;;;;;;5068704;28;20119;-63
2022/06/18 10:28:21;;;;;;;;;;;27.50;99.50;;;;;;5069036;28;20533;-62
2022/06/18 10:31:08;;;;;;;4.82;1.70;;;27.60;99.90;;;;;;5068646;28;20247;-65
2022/06/18 10:34:18;;;;;;;4.85;1.67;;;27.80;99.90;;;;;;5067203;28;20052;-64
2022/06/18 10:37:05;;;;;;;4.35;1.85;;;27.90;99.50;;;;;;5026972;28;20061;-63
2022/06/18 10:39:33;;;;;;;5.60;2.05;;;28.10;99.90;;;;;;5011054;28;20053;-63
2022/06/18 10:42:20;;;;;;;5.53;2.17;;;28.00;99.20;;;;;;5010877;28;20053;-64
2022/06/18 10:44:51;;;;;;;5.43;2.08;;;28.10;99.90;;;;;;5027291;28;20041;-63
2022/06/18 10:47:18;;;;;;;3.22;1.60;;;28.20;99.90;;;;;;5027439;28;20495;-63
2022/06/18 10:49:47;;;;;;;3.78;1.77;;;28.20;99.90;;;;;;5027772;28;20050;-64
2022/06/18 10:52:23;;;;;;;4.28;1.83;;;28.20;99.90;;;;;;5010877;28;20053;-64
2022/06/18 10:54:49;;;;;;;4.28;1.88;;;28.20;99.80;;;;;;5027543;28;20045;-64
2022/06/18 10:57:26;;;;;;;2.15;1.48;;;28.30;99.90;;;;;;5027370;28;20041;-65
2022/06/18 10:59:52;;;;;;;4.13;1.60;;;28.40;99.90;;;;;;5024451;28;20060;-63
2022/06/18 11:02:39;;;;;;;4.70;1.45;;;28.50;99.80;;;;;;5010321;28;20033;-64
2022/06/18 11:05:28;;;;;;;3.83;1.60;;;28.50;99.20;;;;;;5012351;28;20053;-64
2022/06/18 11:07:54;;;;;;;4.47;1.70;;;28.50;99.20;;;;;;5010594;28;20120;-64
2022/06/18 11:10:32;;;;;;;4.82;1.45;;;28.40;98.60;;;;;;5028598;28;20038;-64
2022/06/18 11:13:00;;;;;;;3.05;1.70;;;28.20;98.10;;;;;;5046257;28;20052;-64
2022/06/18 11:15:30;;;;;;;5.50;1.67;;;28.00;98.10;;;;;;5072135;28;20126;-65
2022/06/18 11:17:56;;;;;;;5.57;1.80;;;28.00;98.50;;;;;;5071952;28;20049;-64
2022/06/18 11:20:25;;;;;;;3.33;1.50;;;28.20;98.80;;;;;;5073040;28;20047;-63
2022/06/18 11:22:54;;;;;;;5.53;1.70;;;28.30;98.60;;;;;;5072131;28;20049;-63
2022/06/18 11:25:30;;;;;;;2.70;1.35;;;28.40;98.90;;;;;;5071743;28;20044;-64
2022/06/18 11:27:58;;;;;;;3.90;1.40;;;28.50;99.10;;;;;;5071718;28;20047;-64
2022/06/18 11:30:31;;;;;;;6.20;1.55;;;28.60;99.20;;;;;;5072274;28;20078;-65
2022/06/18 11:32:57;;;;;;;3.83;1.40;;;28.50;98.80;;;;;;5071913;28;20387;-64
2022/06/18 11:35:30;;;;;;;4.20;1.35;;;28.40;98.90;;;;;;5073146;28;20036;-63
2022/06/18 11:37:59;;;;;;;3.85;1.50;;;28.50;98.90;;;;;;5072621;28;20048;-64
2022/06/18 11:40:25;;;;;;;4.55;1.80;;;28.50;98.70;;;;;;5071918;28;20577;-64
2022/06/18 11:43:46;;;;;;;5.88;1.98;;;28.30;98.40;;;;;;5073120;28;20028;-64
2022/06/18 11:46:19;;;;;;;1.88;1.23;;;28.10;98.70;;;;;;5032869;28;20041;-64
2022/06/18 11:48:49;;;;;;;4.35;1.20;;;27.90;98.80;;;;;;5050668;28;20439;-65
2022/06/18 11:51:44;;;;;;;3.83;1.40;;;27.70;98.80;;;;;;5049628;28;20411;-64
2022/06/18 11:54:32;;;;;;;2.40;1.20;;;27.60;98.80;;;;;;5033272;28;20068;-63
2022/06/18 11:57:13;;;;;;;4.53;1.27;;;27.70;99.20;;;;;;5032571;28;20233;-64
2022/06/18 11:59:53;;;;;;;4.63;1.27;;;27.70;99.30;;;;;;5015686;28;20057;-64
2022/06/18 12:02:28;;;;;;;3.38;1.40;;;27.80;99.60;;;;;;5050317;28;20366;-64
2022/06/18 12:05:11;;;;;;;4.18;1.50;;;27.80;99.10;;;;;;5050367;28;20518;-64
2022/06/18 12:07:39;;;;;;;4.75;1.52;;;27.70;99.20;;;;;;5049892;28;20083;-64
2022/06/18 12:10:12;;;;;;;3.30;1.50;;;27.60;99.10;;;;;;5033480;28;20057;-64
2022/06/18 12:13:01;;;;;;;5.13;1.42;;;27.70;99.90;;;;;;5049861;28;20041;-63
2022/06/18 12:15:41;;;;;;;4.50;1.50;;;27.70;99.90;;;;;;5050213;28;20086;-64
2022/06/18 12:18:38;;;;;;;4.90;1.60;;;27.70;99.90;;;;;;5050052;28;20134;-64
2022/06/18 12:21:22;;;;;;;2.35;1.10;;;27.70;99.40;;;;;;5033079;28;20565;-65
2022/06/18 12:23:59;;;;;;;4.40;1.40;;;27.50;99.20;;;;;;5060176;28;20581;-64
2022/06/18 12:26:34;;;;;;;4.13;1.48;;;27.40;99.90;;;;;;5072381;28;20032;-64
2022/06/18 12:29:21;;;;;;;2.58;1.33;;;27.20;99.50;;;;;;5072129;28;20059;-64
2022/06/18 12:31:55;;;;;;;4.15;1.48;;;27.10;99.90;;;;;;5054201;28;20039;-64
2022/06/18 12:34:53;;;;;;;3.30;1.40;;;27.20;99.90;;;;;;5072091;28;20072;-63
2022/06/18 12:37:26;;;;;;;4.35;1.75;;;27.10;99.90;;;;;;5070404;28;20056;-65
2022/06/18 12:40:12;;;;;;;3.85;1.50;;;27.10;99.90;;;;;;5070441;28;20044;-64
2022/06/18 12:42:45;;;;;;;4.43;1.70;;;27.20;99.90;;;;;;5071871;28;20374;-64
2022/06/18 12:45:32;;;;;;;2.28;1.20;;;27.30;99.90;;;;;;5070827;28;20040;-63
2022/06/18 12:48:17;;;;;;;7.50;1.65;;;27.20;99.90;;;;;;5070522;28;20074;-64
2022/06/18 12:50:52;;;;;;;2.25;1.20;;;27.00;99.90;;;;;;5067453;28;20090;-64
2022/06/18 12:53:50;;;;;;;2.85;1.20;;;26.90;99.90;;;;;;5071973;28;20530;-64
2022/06/18 12:56:41;;;;;;;3.35;1.58;;;26.90;99.90;;;;;;5071815;28;20037;-64
2022/06/18 12:59:12;;;;;;;4.13;1.25;;;27.00;99.90;;;;;;5071324;28;20067;-63
2022/06/18 13:01:56;;;;;;;2.92;1.30;;;26.90;99.90;;;;;;5071484;28;20125;-63
2022/06/18 13:04:37;;;;;;;5.05;1.50;;;26.90;99.90;;;;;;5070237;28;20048;-64
2022/06/18 13:07:16;;;;;;;3.97;1.48;;;26.80;99.90;;;;;;5071043;28;20044;-63
2022/06/18 13:10:15;;;;;;;3.60;1.30;;;26.50;99.90;;;;;;5071097;28;20043;-64
2022/06/18 13:12:59;;;;;;;4.43;1.30;;;26.40;99.90;;;;;;5071053;28;20372;-63
2022/06/18 13:15:38;;;;;;;4.90;1.15;;;26.30;99.90;;;;;;5052169;28;20037;-63
2022/06/18 13:18:21;;;;;;;3.67;1.35;;;26.30;99.90;;;;;;5068734;28;20029;-64
2022/06/18 13:20:56;;;;;;;2.75;1.50;;;26.20;99.90;;;;;;5070660;28;20127;-64
2022/06/18 13:29:09;;;;;;;3.58;1.40;;;25.90;99.90;;;;;;5070759;28;20056;-64